createdAt,value
2023-03-07T00:00:14.602Z,37.38
2023-03-07T00:02:41.018Z,38.97
2023-03-07T00:05:07.823Z,38.70
2023-03-07T00:07:34.164Z,35.95
2023-03-07T00:10:00.605Z,44.22
2023-03-07T00:12:26.970Z,44.53
2023-03-07T00:14:55.498Z,40.15
2023-03-07T00:17:21.849Z,39.10
2023-03-07T00:19:48.189Z,43.50
2023-03-07T00:22:14.757Z,45.38
2023-03-07T00:24:41.326Z,41.53
2023-03-07T00:27:08.661Z,42.67
2023-03-07T00:29:35.066Z,47.75
2023-03-07T00:32:01.660Z,39.88
2023-03-07T00:34:28.100Z,42.45
2023-03-07T00:36:54.510Z,41.80
2023-03-07T00:39:20.892Z,42.13
2023-03-07T00:41:47.277Z,46.53
2023-03-07T00:44:13.866Z,40.72
2023-03-07T00:46:40.241Z,44.20
2023-03-07T00:49:06.652Z,43.58
2023-03-07T00:51:33.024Z,44.25
2023-03-07T00:53:59.610Z,47.30
2023-03-07T00:56:26.303Z,43.55
2023-03-07T00:58:52.901Z,52.95
2023-03-07T01:01:22.434Z,47.47
2023-03-07T01:03:58.245Z,45.17
2023-03-07T01:06:27.189Z,46.67
2023-03-07T01:08:58.109Z,45.60
2023-03-07T01:11:26.200Z,45.28
2023-03-07T01:13:55.635Z,49.75
2023-03-07T01:16:29.614Z,48.47
2023-03-07T01:18:58.811Z,40.45
2023-03-07T01:21:29.133Z,44.67
2023-03-07T01:23:57.155Z,43.58
2023-03-07T01:26:26.265Z,43.17
2023-03-07T01:28:55.561Z,44.25
2023-03-07T01:31:22.204Z,47.63
2023-03-07T01:33:50.203Z,41.47
2023-03-07T01:36:30.013Z,45.40
2023-03-07T01:39:06.489Z,39.28
2023-03-07T01:41:36.154Z,37.75
2023-03-07T01:44:05.828Z,41.45
2023-03-07T01:46:44.749Z,44.20
2023-03-07T01:49:30.667Z,42.72
2023-03-07T01:52:08.729Z,46.40
2023-03-07T01:54:40.482Z,40.67
2023-03-07T01:57:07.805Z,40.72
2023-03-07T01:59:40.776Z,46.08
2023-03-07T02:02:12.057Z,44.63
2023-03-07T02:04:44.721Z,42.25
2023-03-07T02:07:13.696Z,45.63
2023-03-07T02:09:43.143Z,40.45
2023-03-07T02:12:10.899Z,41.75
2023-03-07T02:14:37.478Z,41.08
2023-03-07T02:17:03.947Z,39.97
2023-03-07T02:19:45.329Z,40.03
2023-03-07T02:22:16.904Z,38.42
2023-03-07T02:25:07.547Z,40.65
2023-03-07T02:27:36.913Z,40.03
2023-03-07T02:30:05.475Z,34.42
2023-03-07T02:32:32.677Z,35.70
2023-03-07T02:34:59.155Z,36.78
2023-03-07T02:37:30.241Z,37.70
2023-03-07T02:40:01.317Z,34.22
2023-03-07T02:42:32.555Z,35.08
2023-03-07T02:45:10.146Z,35.50
2023-03-07T02:47:37.797Z,34.72
2023-03-07T02:50:05.525Z,35.30
2023-03-07T02:52:33.081Z,33.50
2023-03-07T02:54:59.755Z,31.23
2023-03-07T02:57:31.552Z,32.40
2023-03-07T02:59:59.821Z,33.08
2023-03-07T03:02:26.669Z,33.70
2023-03-07T03:04:53.245Z,30.85
2023-03-07T03:07:22.454Z,30.02
2023-03-07T03:09:48.843Z,30.60
2023-03-07T03:12:17.749Z,26.17
2023-03-07T03:14:44.736Z,27.38
2023-03-07T03:17:11.163Z,25.48
2023-03-07T03:19:37.633Z,27.88
2023-03-07T03:22:04.452Z,31.30
2023-03-07T03:24:39.424Z,31.35
2023-03-07T03:27:07.207Z,26.30
2023-03-07T03:29:33.756Z,30.42
2023-03-07T03:32:03.038Z,25.85
2023-03-07T03:34:30.197Z,28.23
2023-03-07T03:36:56.971Z,25.42
2023-03-07T03:39:23.690Z,26.05
2023-03-07T03:41:54.740Z,26.77
2023-03-07T03:44:22.578Z,24.75
2023-03-07T03:46:49.066Z,26.55
2023-03-07T03:49:19.389Z,21.45
2023-03-07T03:51:48.433Z,23.48
2023-03-07T03:54:15.132Z,26.17
2023-03-07T03:56:42.030Z,27.38
2023-03-07T03:59:08.471Z,26.13
2023-03-07T04:01:34.963Z,21.30
2023-03-07T04:04:01.827Z,27.10
2023-03-07T04:06:32.316Z,25.00
2023-03-07T04:08:59.348Z,23.05
2023-03-07T04:11:26.542Z,24.83
2023-03-07T04:13:53.429Z,25.35
2023-03-07T04:16:22.421Z,27.95
2023-03-07T04:18:50.845Z,28.95
2023-03-07T04:21:17.614Z,28.15
2023-03-07T04:23:44.213Z,28.52
2023-03-07T04:26:11.855Z,30.63
2023-03-07T04:28:48.944Z,27.30
2023-03-07T04:31:22.698Z,31.98
2023-03-07T04:33:50.581Z,28.40
2023-03-07T04:36:17.519Z,29.65
2023-03-07T04:38:46.018Z,30.50
2023-03-07T04:41:26.064Z,32.17
2023-03-07T04:43:57.279Z,30.33
2023-03-07T04:46:25.384Z,30.55
2023-03-07T04:48:51.875Z,30.98
2023-03-07T04:51:19.230Z,33.05
2023-03-07T04:53:47.552Z,33.55
2023-03-07T04:56:17.006Z,33.47
2023-03-07T04:58:44.956Z,34.88
2023-03-07T05:01:12.120Z,34.03
2023-03-07T05:03:38.623Z,35.33
2023-03-07T05:06:08.711Z,32.28
2023-03-07T05:08:35.804Z,32.67
2023-03-07T05:11:02.552Z,34.58
2023-03-07T05:13:30.253Z,38.50
2023-03-07T05:15:58.507Z,33.75
2023-03-07T05:18:26.465Z,32.05
2023-03-07T05:20:54.481Z,36.20
2023-03-07T05:23:21.350Z,33.38
2023-03-07T05:25:49.911Z,33.17
2023-03-07T05:28:18.179Z,32.92
2023-03-07T05:30:46.190Z,38.30
2023-03-07T05:33:12.848Z,34.65
2023-03-07T05:35:40.089Z,32.05
2023-03-07T05:38:08.057Z,34.45
2023-03-07T05:40:35.353Z,34.38
2023-03-07T05:43:02.207Z,36.67
2023-03-07T05:45:28.947Z,33.35
2023-03-07T05:47:55.610Z,35.97
2023-03-07T05:50:22.316Z,32.38
2023-03-07T05:52:48.970Z,32.63
2023-03-07T05:55:15.744Z,34.50
2023-03-07T05:57:43.326Z,33.35
2023-03-07T06:00:11.245Z,32.13
2023-03-07T06:02:41.530Z,35.05
2023-03-07T06:05:11.305Z,36.00
2023-03-07T06:07:37.677Z,30.48
2023-03-07T06:10:04.656Z,36.15
2023-03-07T06:12:31.158Z,36.00
2023-03-07T06:14:57.509Z,34.45
2023-03-07T06:17:24.416Z,32.45
2023-03-07T06:19:51.226Z,34.88
2023-03-07T06:22:17.743Z,36.03
2023-03-07T06:24:44.289Z,35.00
2023-03-07T06:27:10.652Z,35.38
2023-03-07T06:29:37.736Z,34.85
2023-03-07T06:32:04.924Z,33.28
2023-03-07T06:34:31.532Z,30.85
2023-03-07T06:36:58.218Z,33.67
2023-03-07T06:39:24.686Z,30.17
2023-03-07T06:41:53.772Z,33.58
2023-03-07T06:44:20.166Z,30.45
2023-03-07T06:46:46.581Z,35.17
2023-03-07T06:49:15.960Z,34.53
2023-03-07T06:51:45.481Z,35.25
2023-03-07T06:54:12.100Z,32.88
2023-03-07T06:56:39.260Z,34.03
2023-03-07T06:59:05.904Z,33.55
2023-03-07T07:01:32.430Z,31.92
2023-03-07T07:03:59.826Z,33.53
2023-03-07T07:06:28.014Z,33.10
2023-03-07T07:08:55.928Z,31.10
2023-03-07T07:11:25.032Z,32.08
2023-03-07T07:13:52.182Z,31.88
2023-03-07T07:16:19.845Z,32.58
2023-03-07T07:18:46.750Z,31.67
2023-03-07T07:21:13.353Z,31.08
2023-03-07T07:23:40.009Z,35.95
2023-03-07T07:26:06.727Z,36.70
2023-03-07T07:28:34.009Z,30.48
2023-03-07T07:31:00.485Z,31.23
2023-03-07T07:33:29.049Z,31.17
2023-03-07T07:35:55.609Z,28.38
2023-03-07T07:38:22.070Z,27.40
2023-03-07T07:40:48.442Z,29.15
2023-03-07T07:43:17.179Z,26.77
2023-03-07T07:45:48.328Z,32.17
2023-03-07T07:48:19.009Z,29.60
2023-03-07T07:50:46.944Z,32.80
2023-03-07T07:53:14.287Z,31.60
2023-03-07T07:55:40.772Z,28.33
2023-03-07T07:58:07.249Z,30.23
2023-03-07T08:00:33.854Z,33.13
2023-03-07T08:03:01.019Z,29.65
2023-03-07T08:05:27.601Z,30.45
2023-03-07T08:07:54.032Z,30.58
2023-03-07T08:10:20.568Z,33.45
2023-03-07T08:12:51.409Z,29.73
2023-03-07T08:15:21.174Z,27.70
2023-03-07T08:17:48.976Z,30.42
2023-03-07T08:20:15.477Z,26.42
2023-03-07T08:22:43.512Z,30.20
2023-03-07T08:25:17.609Z,28.63
2023-03-07T08:27:44.359Z,29.08
2023-03-07T08:30:11.384Z,29.83
2023-03-07T08:32:37.877Z,27.63
2023-03-07T08:35:04.657Z,28.70
2023-03-07T08:37:31.071Z,29.48
2023-03-07T08:39:57.602Z,28.70
2023-03-07T08:42:24.228Z,26.55
2023-03-07T08:44:50.655Z,27.92
2023-03-07T08:47:17.099Z,27.63
2023-03-07T08:49:43.486Z,28.75
2023-03-07T08:52:09.955Z,28.20
2023-03-07T08:54:36.353Z,28.02
2023-03-07T08:57:02.931Z,30.73
2023-03-07T08:59:29.410Z,26.35
2023-03-07T09:01:56.998Z,28.10
2023-03-07T09:04:24.273Z,25.27
2023-03-07T09:06:51.230Z,25.38
2023-03-07T09:09:17.650Z,25.88
2023-03-07T09:11:44.259Z,27.65
2023-03-07T09:14:10.731Z,23.02
2023-03-07T09:16:37.371Z,25.00
2023-03-07T09:19:03.890Z,24.95
2023-03-07T09:21:30.347Z,26.63
2023-03-07T09:23:56.898Z,25.45
2023-03-07T09:26:23.546Z,23.58
2023-03-07T09:28:50.216Z,25.02
2023-03-07T09:31:16.927Z,25.30
2023-03-07T09:33:46.577Z,25.55
2023-03-07T09:36:14.964Z,24.05
2023-03-07T09:38:41.892Z,24.13
2023-03-07T09:41:24.461Z,25.05
2023-03-07T09:44:06.628Z,27.17
2023-03-07T09:47:37.490Z,25.20
2023-03-07T09:50:13.560Z,24.40
2023-03-07T09:52:41.480Z,20.65
2023-03-07T09:55:18.962Z,27.92
2023-03-07T09:57:55.333Z,22.88
2023-03-07T10:00:29.588Z,22.58
2023-03-07T10:03:00.329Z,23.50
2023-03-07T10:05:32.352Z,22.20
2023-03-07T10:08:01.153Z,23.73
2023-03-07T10:10:44.291Z,22.02
2023-03-07T10:13:39.799Z,22.38
2023-03-07T10:16:20.975Z,24.65
2023-03-07T10:19:18.008Z,21.65
2023-03-07T10:21:50.704Z,23.50
2023-03-07T10:24:29.655Z,25.73
2023-03-07T10:27:10.653Z,25.02
2023-03-07T10:29:52.071Z,26.33
2023-03-07T10:32:36.115Z,21.73
2023-03-07T10:35:02.687Z,21.90
2023-03-07T10:37:45.671Z,21.40
2023-03-07T10:40:18.629Z,19.98
2023-03-07T10:45:13.782Z,23.73
2023-03-07T10:47:40.884Z,23.38
2023-03-07T10:50:26.189Z,22.77
2023-03-07T10:52:56.780Z,22.63
2023-03-07T10:55:49.411Z,22.40
2023-03-07T10:58:28.830Z,20.77
2023-03-07T11:01:07.259Z,20.73
2023-03-07T11:03:56.863Z,20.98
2023-03-07T11:06:30.444Z,21.95
2023-03-07T11:08:57.387Z,22.38
2023-03-07T11:11:30.902Z,21.95
2023-03-07T11:14:14.494Z,21.33
2023-03-07T11:16:56.946Z,19.98
2023-03-07T11:19:39.738Z,20.77
2023-03-07T11:22:24.669Z,19.30
2023-03-07T11:24:58.662Z,21.92
2023-03-07T11:27:33.005Z,20.70
2023-03-07T11:30:19.202Z,19.60
2023-03-07T11:33:06.755Z,20.30
2023-03-07T11:35:55.203Z,19.50
2023-03-07T11:38:38.667Z,20.63
2023-03-07T11:41:14.151Z,21.25
2023-03-07T11:43:58.621Z,20.27
2023-03-07T11:47:04.123Z,18.67
2023-03-07T11:49:51.698Z,23.88
2023-03-07T11:52:36.119Z,22.42
2023-03-07T11:55:15.178Z,24.45
2023-03-07T11:58:12.808Z,22.95
2023-03-07T12:01:00.503Z,18.02
2023-03-07T12:03:36.154Z,21.05
2023-03-07T12:06:36.975Z,18.13
2023-03-07T12:09:03.486Z,19.23
2023-03-07T12:12:04.993Z,19.48
2023-03-07T12:14:40.524Z,20.30
2023-03-07T12:17:24.988Z,22.80
2023-03-07T12:20:18.878Z,20.17
2023-03-07T12:23:06.960Z,19.60
2023-03-07T12:25:36.338Z,18.45
2023-03-07T12:28:11.037Z,19.95
2023-03-07T12:31:02.367Z,24.85
2023-03-07T12:33:34.864Z,21.27
2023-03-07T12:36:06.089Z,19.80
2023-03-07T12:38:54.779Z,18.75
2023-03-07T12:41:36.963Z,23.30
2023-03-07T12:44:11.796Z,18.92
2023-03-07T12:46:51.496Z,20.95
2023-03-07T12:49:49.716Z,20.13
2023-03-07T12:52:31.816Z,23.52
2023-03-07T12:55:06.352Z,18.77
2023-03-07T12:57:37.594Z,17.38
2023-03-07T13:00:11.552Z,18.02
2023-03-07T13:02:51.014Z,20.13
2023-03-07T13:05:21.560Z,17.58
2023-03-07T13:07:49.537Z,20.25
2023-03-07T13:10:20.826Z,19.67
2023-03-07T13:12:49.878Z,19.17
2023-03-07T13:15:16.276Z,19.83
2023-03-07T13:17:42.615Z,21.98
2023-03-07T13:20:14.848Z,21.35
2023-03-07T13:22:41.289Z,20.25
2023-03-07T13:25:20.106Z,23.25
2023-03-07T13:27:56.399Z,20.83
2023-03-07T13:30:27.334Z,23.05
2023-03-07T13:32:56.750Z,21.35
2023-03-07T13:35:32.240Z,19.77
2023-03-07T13:37:59.961Z,18.88
2023-03-07T13:40:35.312Z,21.70
2023-03-07T13:43:03.388Z,20.25
2023-03-07T13:45:38.859Z,21.10
2023-03-07T13:48:11.664Z,22.48
2023-03-07T13:50:50.291Z,24.85
2023-03-07T13:53:23.378Z,22.35
2023-03-07T13:58:29.080Z,21.52
2023-03-07T14:00:59.434Z,21.40
2023-03-07T14:03:38.487Z,20.65
2023-03-07T14:06:20.430Z,21.63
2023-03-07T14:08:48.734Z,22.70
2023-03-07T14:11:32.222Z,21.35
2023-03-07T14:14:18.837Z,22.05
2023-03-07T14:17:05.276Z,22.90
2023-03-07T14:19:46.825Z,23.48
2023-03-07T14:22:41.203Z,22.17
2023-03-07T14:25:26.893Z,22.35
2023-03-07T14:28:01.587Z,22.42
2023-03-07T14:30:31.339Z,23.80
2023-03-07T14:32:58.738Z,21.52
2023-03-07T14:35:37.031Z,21.80
2023-03-07T14:38:07.873Z,20.88
2023-03-07T14:40:46.883Z,19.52
2023-03-07T14:43:26.267Z,17.95
2023-03-07T14:46:18.620Z,21.58
2023-03-07T14:49:07.818Z,18.92
2023-03-07T14:51:39.272Z,19.83
2023-03-07T14:54:13.405Z,18.73
2023-03-07T14:56:40.754Z,18.45
2023-03-07T14:59:14.233Z,20.95
2023-03-07T15:01:48.458Z,20.25
2023-03-07T15:04:33.418Z,22.90
2023-03-07T15:07:05.556Z,20.63
2023-03-07T15:09:33.809Z,19.60
2023-03-07T15:12:14.838Z,17.63
2023-03-07T15:15:03.137Z,17.08
2023-03-07T15:17:35.992Z,17.05
2023-03-07T15:20:07.508Z,18.67
2023-03-07T15:22:39.378Z,16.58
2023-03-07T15:25:16.991Z,18.77
2023-03-07T15:27:43.606Z,16.52
2023-03-07T15:30:23.911Z,18.35
2023-03-07T15:33:03.769Z,18.13
2023-03-07T15:35:30.499Z,21.25
2023-03-07T15:38:00.172Z,19.45
2023-03-07T15:40:30.462Z,19.50
2023-03-07T15:42:56.911Z,19.85
2023-03-07T15:45:34.024Z,19.15
2023-03-07T15:48:08.901Z,17.77
2023-03-07T15:50:35.394Z,19.42
2023-03-07T15:53:17.353Z,17.80
2023-03-07T15:55:53.461Z,19.00
2023-03-07T15:58:20.077Z,19.75
2023-03-07T16:00:46.493Z,18.98
2023-03-07T16:03:22.652Z,20.38
2023-03-07T16:05:49.590Z,19.10
2023-03-07T16:08:19.770Z,17.85
2023-03-07T16:10:59.630Z,19.73
2023-03-07T16:13:31.356Z,17.25
2023-03-07T16:16:25.467Z,19.02
2023-03-07T16:18:52.945Z,18.83
2023-03-07T16:21:20.339Z,22.58
2023-03-07T16:23:48.157Z,21.48
2023-03-07T16:26:18.840Z,19.52
2023-03-07T16:28:45.281Z,22.38
2023-03-07T16:31:13.754Z,18.98
2023-03-07T16:33:40.239Z,22.00
2023-03-07T16:36:08.085Z,20.48
2023-03-07T16:38:34.544Z,21.85
2023-03-07T16:41:04.272Z,22.02
2023-03-07T16:43:35.133Z,21.52
2023-03-07T16:46:04.096Z,21.45
2023-03-07T16:48:30.620Z,21.05
2023-03-07T16:50:58.478Z,25.05
2023-03-07T16:53:24.914Z,23.92
2023-03-07T16:55:51.620Z,25.15
2023-03-07T16:58:31.019Z,26.60
2023-03-07T17:00:58.931Z,23.50
2023-03-07T17:03:26.905Z,21.85
2023-03-07T17:05:53.301Z,21.30
2023-03-07T17:08:19.679Z,24.35
2023-03-07T17:10:46.748Z,22.25
2023-03-07T17:13:17.315Z,24.10
2023-03-07T17:15:45.303Z,22.42
2023-03-07T17:18:12.119Z,25.58
2023-03-07T17:20:38.967Z,21.65
2023-03-07T17:23:05.350Z,22.58
2023-03-07T17:25:31.992Z,21.80
2023-03-07T17:28:07.510Z,21.73
2023-03-07T17:30:34.415Z,20.27
2023-03-07T17:33:01.172Z,20.33
2023-03-07T17:35:30.869Z,20.33
2023-03-07T17:37:57.409Z,22.52
2023-03-07T17:40:24.037Z,24.85
2023-03-07T17:42:51.672Z,21.02
2023-03-07T17:45:18.561Z,22.38
2023-03-07T17:47:44.993Z,21.88
2023-03-07T17:50:12.098Z,20.83
2023-03-07T17:52:39.539Z,20.75
2023-03-07T17:55:09.718Z,24.08
2023-03-07T17:57:36.407Z,21.83
2023-03-07T18:00:06.742Z,21.42
2023-03-07T18:02:39.494Z,20.27
2023-03-07T18:05:07.223Z,21.77
2023-03-07T18:07:33.925Z,19.65
2023-03-07T18:10:07.894Z,20.27
2023-03-07T18:12:34.737Z,23.70
2023-03-07T18:15:01.114Z,23.35
2023-03-07T18:17:31.378Z,21.20
2023-03-07T18:20:10.956Z,20.95
2023-03-07T18:22:38.197Z,20.20
2023-03-07T18:25:06.741Z,20.88
2023-03-07T18:27:33.184Z,29.00
2023-03-07T18:29:59.528Z,21.60
2023-03-07T18:32:27.780Z,20.73
2023-03-07T18:34:55.612Z,19.77
2023-03-07T18:37:22.026Z,20.23
2023-03-07T18:39:48.609Z,21.45
2023-03-07T18:42:15.175Z,20.42
2023-03-07T18:44:42.063Z,19.55
2023-03-07T18:47:10.426Z,22.60
2023-03-07T18:49:38.355Z,22.45
2023-03-07T18:52:04.919Z,21.80
2023-03-07T18:54:31.370Z,33.08
2023-03-07T18:56:57.747Z,21.60
2023-03-07T18:59:24.125Z,20.67
2023-03-07T19:01:50.693Z,33.03
2023-03-07T19:04:18.000Z,21.90
2023-03-07T19:06:47.229Z,26.08
2023-03-07T19:09:21.021Z,24.48
2023-03-07T19:11:47.682Z,25.33
2023-03-07T19:14:14.340Z,23.52
2023-03-07T19:16:40.977Z,23.63
2023-03-07T19:19:07.376Z,24.83
2023-03-07T19:21:34.334Z,23.70
2023-03-07T19:24:02.616Z,24.08
2023-03-07T19:26:29.173Z,23.50
2023-03-07T19:28:56.835Z,21.63
2023-03-07T19:31:25.563Z,22.08
2023-03-07T19:33:53.001Z,23.23
2023-03-07T19:36:22.422Z,24.40
2023-03-07T19:38:50.672Z,22.60
2023-03-07T19:41:21.898Z,21.33
2023-03-07T19:43:48.606Z,22.70
2023-03-07T19:46:17.155Z,20.63
2023-03-07T19:48:44.055Z,22.02
2023-03-07T19:51:28.395Z,22.00
2023-03-07T19:53:57.469Z,25.83
2023-03-07T19:56:27.400Z,26.08
2023-03-07T19:58:54.921Z,25.85
2023-03-07T20:01:22.482Z,23.50
2023-03-07T20:03:50.641Z,24.20
2023-03-07T20:06:20.139Z,24.13
2023-03-07T20:08:50.781Z,25.00
2023-03-07T20:11:25.020Z,28.90
2023-03-07T20:13:54.998Z,26.48
2023-03-07T20:16:21.626Z,24.67
2023-03-07T20:18:53.120Z,26.17
2023-03-07T20:21:21.384Z,28.17
2023-03-07T20:23:48.695Z,22.88
2023-03-07T20:26:27.951Z,26.15
2023-03-07T20:28:56.207Z,25.77
2023-03-07T20:31:23.285Z,25.42
2023-03-07T20:33:50.044Z,20.45
2023-03-07T20:36:20.980Z,23.27
2023-03-07T20:38:50.009Z,22.38
2023-03-07T20:41:17.816Z,21.40
2023-03-07T20:43:44.261Z,17.08
2023-03-07T20:46:13.337Z,17.77
2023-03-07T20:48:41.258Z,16.25
2023-03-07T20:51:18.475Z,16.75
2023-03-07T20:53:48.150Z,16.10
2023-03-07T20:56:15.232Z,16.83
2023-03-07T20:58:42.882Z,16.58
2023-03-07T21:01:10.612Z,15.48
2023-03-07T21:03:37.813Z,14.52
2023-03-07T21:06:05.571Z,14.70
2023-03-07T21:08:35.058Z,16.13
2023-03-07T21:11:10.803Z,14.35
2023-03-07T21:13:39.786Z,15.60
2023-03-07T21:16:15.417Z,16.65
2023-03-07T21:18:42.190Z,14.63
2023-03-07T21:21:17.412Z,15.38
2023-03-07T21:23:44.660Z,16.38
2023-03-07T21:26:14.274Z,16.83
2023-03-07T21:28:40.727Z,16.63
2023-03-07T21:31:18.402Z,16.15
2023-03-07T21:33:47.891Z,16.73
2023-03-07T21:36:16.554Z,15.40
2023-03-07T21:38:44.770Z,16.55
2023-03-07T21:41:11.919Z,16.38
2023-03-07T21:43:38.464Z,13.95
2023-03-07T21:46:07.523Z,15.65
2023-03-07T21:48:34.530Z,15.63
2023-03-07T21:51:01.215Z,15.05
2023-03-07T21:53:27.815Z,15.63
2023-03-07T21:56:02.378Z,15.30
2023-03-07T21:58:30.363Z,13.30
2023-03-07T22:00:57.220Z,13.65
2023-03-07T22:03:25.739Z,12.45
2023-03-07T22:05:52.639Z,13.98
2023-03-07T22:08:22.396Z,9.55
2023-03-07T22:11:00.307Z,12.80
2023-03-07T22:13:28.074Z,16.67
2023-03-07T22:15:59.460Z,14.00
2023-03-07T22:18:26.009Z,11.90
2023-03-07T22:20:52.613Z,13.38
2023-03-07T22:23:19.200Z,14.55
2023-03-07T22:25:45.532Z,13.40
2023-03-07T22:28:11.969Z,13.57
2023-03-07T22:30:38.467Z,13.60
2023-03-07T22:33:04.843Z,14.27
2023-03-07T22:35:31.279Z,14.63
2023-03-07T22:37:57.700Z,13.82
2023-03-07T22:40:24.132Z,14.18
2023-03-07T22:42:52.378Z,14.13
2023-03-07T22:45:18.809Z,13.35
2023-03-07T22:47:45.223Z,13.07
2023-03-07T22:50:11.870Z,16.17
2023-03-07T22:52:38.247Z,12.73
2023-03-07T22:55:05.115Z,14.38
2023-03-07T22:57:31.710Z,16.23
2023-03-07T22:59:58.042Z,14.73
2023-03-07T23:02:24.489Z,12.60
2023-03-07T23:04:52.336Z,12.48
2023-03-07T23:07:19.262Z,12.32
2023-03-07T23:09:45.621Z,12.10
2023-03-07T23:12:12.104Z,12.57
2023-03-07T23:14:38.530Z,12.20
2023-03-07T23:17:05.005Z,12.73
2023-03-07T23:19:31.703Z,15.20
2023-03-07T23:21:58.386Z,17.10
2023-03-07T23:24:24.750Z,12.85
2023-03-07T23:26:51.124Z,12.93
2023-03-07T23:29:18.101Z,13.80
2023-03-07T23:31:44.669Z,12.20
2023-03-07T23:34:17.036Z,12.10
2023-03-07T23:36:44.106Z,12.38
2023-03-07T23:39:10.940Z,13.82
2023-03-07T23:41:37.846Z,12.90
2023-03-07T23:44:04.597Z,13.65
2023-03-07T23:46:31.540Z,14.65
2023-03-07T23:48:57.981Z,13.25
2023-03-07T23:51:25.188Z,15.73
2023-03-07T23:53:51.874Z,12.38
2023-03-07T23:56:18.434Z,13.77
2023-03-07T23:58:52.764Z,13.32
